Main page
METAR-TAF:

METAR-TAF

Airports :

Logroño–Agoncillo Airport

Logroño, Spain

latitude: 42-27N, longitude: 002-20W, elevation: 353 m

Current weather observation

The report was made 32 minutes ago, at 22:30 UTC
Calm wind
Temperature 9°C
Humidity 93%
Pressure 1024 hPa
Visibility 10 km or more
no clouds below 1500 m and no cumulonimbus

METAR: LELO 272230Z AUTO 00000KT CAVOK 09/08 Q1024

Time: 00:02 (23:02 UTC)

Forecast

The report was made 3 hours and 2 minutes ago, at 20:00 UTC
Forecast valid from 27 at 21 UTC to 28 at 21 UTC
Wind 5 kt from variable directions
Visibility 10 km or more
Few clouds at a height of 3500 ft
Probability 40% :
Temporary
from 28 at 00 UTC to 28 at 10 UTC
Visibility: 3000 m
Broken clouds at a height of 600 ft
mist, patches of fog
Probability 40% :
Temporary
from 28 at 01 UTC to 28 at 11 UTC
Visibility: 0150 m
at a height of 100 ft
fog

TAF: LELO 272000Z 2721/2821 VRB05KT 9999 FEW035 TX18/2815Z TN05/2806Z PROB40 TEMPO 2800/2810 3000 BR BCFG BKN006 PROB40 TEMPO 2801/2811 0150 FG VV001

Weather observations and forecasts of more than 4000 airports (METAR and TAF reports).

The available stations are represented by yellow and red dots on the map.

Hover mouse over dot to see the name of the station.

Then click to see weather observations and forecasts.

To change the map : click on the green buttons with a black cross to zoom in, on the green button with a dash to zoom out, or on the green arrows for adjacent maps.


METAR-TAF: